createdAt,value
2022-12-18T00:01:07.185Z,78.41
2022-12-18T00:03:34.808Z,78.23
2022-12-18T00:06:01.498Z,78.18
2022-12-18T00:08:28.943Z,77.95
2022-12-18T00:10:55.527Z,77.76
2022-12-18T00:13:26.166Z,78.14
2022-12-18T00:15:54.338Z,78.18
2022-12-18T00:18:23.159Z,78.29
2022-12-18T00:20:49.522Z,78.19
2022-12-18T00:23:15.908Z,77.96
2022-12-18T00:25:42.386Z,78.09
2022-12-18T00:28:08.791Z,78.02
2022-12-18T00:30:35.185Z,77.95
2022-12-18T00:33:01.599Z,77.76
2022-12-18T00:35:28.011Z,77.98
2022-12-18T00:37:54.399Z,78.08
2022-12-18T00:40:20.886Z,77.90
2022-12-18T00:42:59.130Z,78.38
2022-12-18T00:45:31.347Z,78.33
2022-12-18T00:47:58.397Z,78.53
2022-12-18T00:50:25.985Z,78.44
2022-12-18T00:52:53.017Z,78.32
2022-12-18T00:55:19.794Z,78.29
2022-12-18T00:57:46.193Z,78.37
2022-12-18T01:00:14.934Z,78.20
2022-12-18T01:02:42.127Z,78.05
2022-12-18T01:05:10.875Z,77.66
2022-12-18T01:07:37.583Z,77.58
2022-12-18T01:10:05.368Z,77.34
2022-12-18T01:12:32.057Z,77.46
2022-12-18T01:14:58.558Z,77.71
2022-12-18T01:17:24.997Z,78.07
2022-12-18T01:19:51.394Z,78.29
2022-12-18T01:22:17.784Z,78.64
2022-12-18T01:24:44.221Z,78.65
2022-12-18T01:27:10.765Z,79.00
2022-12-18T01:29:37.197Z,78.88
2022-12-18T01:32:03.790Z,78.43
2022-12-18T01:34:30.246Z,78.83
2022-12-18T01:36:56.703Z,78.46
2022-12-18T01:39:23.273Z,78.87
2022-12-18T01:42:04.652Z,79.05
2022-12-18T01:44:58.514Z,79.36
2022-12-18T01:47:39.375Z,79.51
2022-12-18T01:50:18.618Z,79.07
2022-12-18T01:52:48.600Z,78.72
2022-12-18T01:55:17.121Z,79.11
2022-12-18T01:57:43.721Z,78.50
2022-12-18T02:00:17.399Z,79.00
2022-12-18T02:02:46.076Z,78.52
2022-12-18T02:05:15.861Z,78.37
2022-12-18T02:07:54.234Z,78.90
2022-12-18T02:10:48.088Z,79.05
2022-12-18T02:13:22.450Z,78.74
2022-12-18T02:16:30.010Z,79.08
2022-12-18T02:19:01.270Z,78.23
2022-12-18T02:22:02.359Z,78.96
2022-12-18T02:24:53.720Z,79.03
2022-12-18T02:27:20.572Z,78.71
2022-12-18T02:29:58.656Z,78.35
2022-12-18T02:32:29.006Z,78.50
2022-12-18T02:34:57.193Z,78.31
2022-12-18T02:37:26.762Z,77.54
2022-12-18T02:39:55.902Z,77.24
2022-12-18T02:42:23.289Z,77.81
2022-12-18T02:44:51.904Z,77.09
2022-12-18T02:47:22.785Z,77.56
2022-12-18T02:50:23.072Z,77.52
2022-12-18T02:53:18.305Z,78.01
2022-12-18T02:55:53.772Z,77.27
2022-12-18T02:58:31.513Z,77.46
2022-12-18T03:01:16.797Z,78.23
2022-12-18T03:03:51.357Z,77.45
2022-12-18T03:06:27.903Z,77.53
2022-12-18T03:09:00.169Z,77.45
2022-12-18T03:11:48.344Z,77.35
2022-12-18T03:14:17.580Z,76.73
2022-12-18T03:16:45.725Z,76.62
2022-12-18T03:19:19.805Z,76.90
2022-12-18T03:21:50.532Z,77.40
2022-12-18T03:24:20.723Z,77.12
2022-12-18T03:26:51.952Z,77.24
2022-12-18T03:29:23.539Z,77.60
2022-12-18T03:31:55.953Z,77.50
2022-12-18T03:34:30.554Z,77.47
2022-12-18T03:36:57.240Z,77.23
2022-12-18T03:39:23.712Z,77.13
2022-12-18T03:42:02.256Z,78.05
2022-12-18T03:44:56.833Z,77.76
2022-12-18T03:47:44.973Z,78.47
2022-12-18T03:50:21.552Z,78.33
2022-12-18T03:52:54.171Z,78.10
2022-12-18T03:55:22.800Z,77.77
2022-12-18T03:57:50.352Z,77.90
2022-12-18T04:00:20.147Z,77.46
2022-12-18T04:02:53.820Z,77.73
2022-12-18T04:05:21.616Z,77.70
2022-12-18T04:07:50.538Z,78.14
2022-12-18T04:10:18.007Z,78.19
2022-12-18T04:12:44.826Z,77.73
2022-12-18T04:15:13.017Z,78.13
2022-12-18T04:17:41.143Z,77.93
2022-12-18T04:20:07.984Z,77.55
2022-12-18T04:22:34.493Z,78.26
2022-12-18T04:25:01.188Z,78.17
2022-12-18T04:27:27.745Z,78.17
2022-12-18T04:29:54.151Z,78.17
2022-12-18T04:32:20.600Z,77.54
2022-12-18T04:34:47.031Z,77.53
2022-12-18T04:37:13.581Z,77.74
2022-12-18T04:39:40.211Z,77.41
2022-12-18T04:42:06.766Z,77.25
2022-12-18T04:44:33.186Z,76.91
2022-12-18T04:46:59.684Z,76.66
2022-12-18T04:49:26.180Z,76.39
2022-12-18T04:51:53.889Z,76.76
2022-12-18T04:54:20.456Z,76.95
2022-12-18T04:56:47.683Z,76.39
2022-12-18T04:59:14.217Z,76.72
2022-12-18T05:01:40.887Z,76.41
2022-12-18T05:04:07.768Z,76.86
2022-12-18T05:06:34.178Z,76.38
2022-12-18T05:09:00.606Z,76.74
2022-12-18T05:11:27.045Z,77.32
2022-12-18T05:13:53.495Z,76.63
2022-12-18T05:16:19.993Z,76.96
2022-12-18T05:18:46.447Z,76.57
2022-12-18T05:21:13.116Z,76.95
2022-12-18T05:23:39.826Z,76.87
2022-12-18T05:26:07.576Z,76.83
2022-12-18T05:28:35.871Z,76.98
2022-12-18T05:31:04.503Z,77.30
2022-12-18T05:33:33.975Z,77.94
2022-12-18T05:36:05.840Z,77.58
2022-12-18T05:38:34.135Z,77.78
2022-12-18T05:41:00.935Z,77.87
2022-12-18T05:43:28.224Z,77.88
2022-12-18T05:45:55.410Z,77.74
2022-12-18T05:48:24.945Z,78.00
2022-12-18T05:50:52.017Z,78.36
2022-12-18T05:53:20.807Z,78.89
2022-12-18T05:55:48.030Z,78.78
2022-12-18T05:58:15.587Z,79.14
2022-12-18T06:00:44.153Z,79.22
2022-12-18T06:03:13.492Z,78.73
2022-12-18T06:05:45.052Z,78.83
2022-12-18T06:08:13.292Z,78.62
2022-12-18T06:10:40.823Z,79.23
2022-12-18T06:13:07.873Z,78.61
2022-12-18T06:15:37.350Z,78.94
2022-12-18T06:18:04.199Z,78.82
2022-12-18T06:20:33.411Z,78.87
2022-12-18T06:23:00.536Z,78.65
2022-12-18T06:25:27.129Z,78.54
2022-12-18T06:27:53.524Z,78.01
2022-12-18T06:30:20.690Z,77.88
2022-12-18T06:32:53.056Z,78.10
2022-12-18T06:35:22.809Z,78.13
2022-12-18T06:37:49.397Z,78.38
2022-12-18T06:40:15.788Z,78.02
2022-12-18T06:42:42.216Z,78.42
2022-12-18T06:45:09.163Z,78.00
2022-12-18T06:47:35.611Z,78.13
2022-12-18T06:50:02.021Z,78.16
2022-12-18T06:52:28.509Z,78.70
2022-12-18T06:54:54.949Z,78.59
2022-12-18T06:57:21.976Z,78.51
2022-12-18T06:59:48.342Z,78.31
2022-12-18T07:02:15.126Z,78.75
2022-12-18T07:04:41.814Z,78.79
2022-12-18T07:07:08.182Z,78.70
2022-12-18T07:09:34.713Z,78.47
2022-12-18T07:12:01.198Z,78.91
2022-12-18T07:14:27.822Z,78.68
2022-12-18T07:16:54.896Z,78.71
2022-12-18T07:19:21.454Z,78.79
2022-12-18T07:21:48.030Z,78.88
2022-12-18T07:24:14.443Z,78.70
2022-12-18T07:26:40.989Z,78.39
2022-12-18T07:29:07.396Z,78.79
2022-12-18T07:31:33.830Z,78.38
2022-12-18T07:34:00.384Z,78.08
2022-12-18T07:36:26.965Z,77.88
2022-12-18T07:38:53.876Z,78.04
2022-12-18T07:41:20.858Z,78.26
2022-12-18T07:43:48.090Z,78.13
2022-12-18T07:46:16.575Z,78.36
2022-12-18T07:48:44.791Z,78.35
2022-12-18T07:51:13.410Z,78.61
2022-12-18T07:53:40.740Z,78.78
2022-12-18T07:56:28.082Z,79.07
2022-12-18T07:58:55.979Z,78.91
2022-12-18T08:01:22.526Z,78.91
2022-12-18T08:03:49.047Z,78.97
2022-12-18T08:06:17.672Z,78.79
2022-12-18T08:08:44.128Z,79.07
2022-12-18T08:11:10.487Z,78.73
2022-12-18T08:13:37.284Z,78.51
2022-12-18T08:16:06.693Z,78.96
2022-12-18T08:18:34.831Z,78.76
2022-12-18T08:21:12.392Z,79.84
2022-12-18T08:23:42.545Z,78.92
2022-12-18T08:26:19.128Z,79.55
2022-12-18T08:28:46.113Z,79.10
2022-12-18T08:31:12.839Z,79.49
2022-12-18T08:33:40.596Z,79.95
2022-12-18T08:36:09.497Z,80.17
2022-12-18T08:38:35.962Z,80.15
2022-12-18T08:41:12.040Z,80.60
2022-12-18T08:43:57.700Z,80.41
2022-12-18T08:46:28.748Z,80.60
2022-12-18T08:48:56.991Z,80.60
2022-12-18T08:51:23.816Z,80.65
2022-12-18T08:53:50.403Z,81.10
2022-12-18T08:56:17.088Z,81.00
2022-12-18T08:58:43.728Z,80.81
2022-12-18T09:01:12.205Z,81.03
2022-12-18T09:03:39.700Z,80.96
2022-12-18T09:06:07.082Z,80.58
2022-12-18T09:08:37.829Z,80.72
2022-12-18T09:11:04.835Z,80.50
2022-12-18T09:13:31.328Z,80.81
2022-12-18T09:15:57.976Z,80.58
2022-12-18T09:18:25.156Z,80.63
2022-12-18T09:20:53.660Z,80.70
2022-12-18T09:23:20.876Z,80.88
2022-12-18T09:25:47.335Z,80.55
2022-12-18T09:28:15.587Z,80.58
2022-12-18T09:30:45.154Z,80.29
2022-12-18T09:33:11.973Z,80.49
2022-12-18T09:35:39.861Z,80.24
2022-12-18T09:38:06.921Z,80.21
2022-12-18T09:40:41.083Z,80.24
2022-12-18T09:43:11.854Z,79.73
2022-12-18T09:45:53.443Z,80.69
2022-12-18T09:48:29.178Z,80.54
2022-12-18T09:51:01.643Z,80.46
2022-12-18T09:53:33.557Z,80.42
2022-12-18T09:56:04.181Z,80.43
2022-12-18T09:58:46.247Z,80.48
2022-12-18T10:01:22.064Z,80.69
2022-12-18T10:03:49.036Z,80.20
2022-12-18T10:06:40.324Z,81.06
2022-12-18T10:09:22.467Z,80.82
2022-12-18T10:12:08.004Z,80.93
2022-12-18T10:14:49.407Z,80.74
2022-12-18T10:17:24.987Z,79.80
2022-12-18T10:20:02.494Z,79.74
2022-12-18T10:23:00.325Z,79.20
2022-12-18T10:25:36.228Z,78.25
2022-12-18T10:28:14.749Z,78.55
2022-12-18T10:30:43.414Z,76.93
2022-12-18T10:33:19.481Z,77.56
2022-12-18T10:35:48.011Z,76.42
2022-12-18T10:38:17.515Z,76.32
2022-12-18T10:40:57.739Z,75.85
2022-12-18T10:43:26.152Z,76.19
2022-12-18T10:46:03.470Z,75.86
2022-12-18T10:48:31.442Z,74.87
2022-12-18T10:51:13.987Z,74.70
2022-12-18T10:53:43.566Z,74.15
2022-12-18T10:56:10.391Z,74.38
2022-12-18T10:58:39.631Z,72.97
2022-12-18T11:01:18.229Z,73.87
2022-12-18T11:03:47.017Z,71.57
2022-12-18T11:06:16.164Z,70.73
2022-12-18T11:08:45.673Z,69.70
2022-12-18T11:11:22.812Z,68.79
2022-12-18T11:14:05.381Z,68.97
2022-12-18T11:16:57.890Z,68.14
2022-12-18T11:19:38.077Z,67.21
2022-12-18T11:22:27.396Z,66.54
2022-12-18T11:25:30.327Z,66.30
2022-12-18T11:28:23.810Z,66.54
2022-12-18T11:30:50.239Z,65.36
2022-12-18T11:33:21.714Z,65.12
2022-12-18T11:35:55.268Z,63.02
2022-12-18T11:38:27.743Z,63.03
2022-12-18T11:41:03.159Z,62.17
2022-12-18T11:43:39.670Z,63.04
2022-12-18T11:46:20.382Z,64.15
2022-12-18T11:49:18.278Z,63.72
2022-12-18T11:51:59.780Z,62.60
2022-12-18T11:54:26.221Z,60.51
2022-12-18T11:57:35.850Z,60.16
2022-12-18T12:00:15.903Z,60.43
2022-12-18T12:03:16.621Z,61.03
2022-12-18T12:06:02.693Z,60.10
2022-12-18T12:08:52.948Z,59.81
2022-12-18T12:11:19.234Z,60.78
2022-12-18T12:14:10.190Z,60.01
2022-12-18T12:16:49.897Z,59.01
2022-12-18T12:19:38.265Z,60.51
2022-12-18T12:22:18.159Z,59.53
2022-12-18T12:25:00.431Z,60.48
2022-12-18T12:27:36.593Z,60.62
2022-12-18T12:30:06.539Z,61.54
2022-12-18T12:33:06.607Z,61.69
2022-12-18T12:35:52.057Z,62.34
2022-12-18T12:38:27.416Z,61.69
2022-12-18T12:41:04.224Z,62.07
2022-12-18T12:43:47.878Z,61.95
2022-12-18T12:46:19.880Z,63.05
2022-12-18T12:48:50.049Z,62.79
2022-12-18T12:51:35.973Z,62.94
2022-12-18T12:54:05.938Z,60.89
2022-12-18T12:57:08.105Z,61.83
2022-12-18T13:00:11.266Z,61.96
2022-12-18T13:02:41.005Z,59.61
2022-12-18T13:05:20.069Z,61.14
2022-12-18T13:08:00.475Z,60.94
2022-12-18T13:10:44.226Z,60.74
2022-12-18T13:13:13.103Z,59.79
2022-12-18T13:15:40.617Z,58.66
2022-12-18T13:18:10.159Z,58.16
2022-12-18T13:20:41.099Z,57.12
2022-12-18T13:23:26.121Z,59.17
2022-12-18T13:25:59.853Z,57.37
2022-12-18T13:28:44.445Z,57.13
2022-12-18T13:31:11.117Z,57.29
2022-12-18T13:34:16.578Z,57.56
2022-12-18T13:36:32.675Z,56.89
2022-12-18T13:39:29.992Z,58.10
2022-12-18T13:42:05.660Z,59.12
2022-12-18T13:44:40.222Z,58.31
2022-12-18T13:47:34.739Z,59.74
2022-12-18T13:50:10.405Z,58.42
2022-12-18T13:52:40.299Z,58.98
2022-12-18T13:55:17.033Z,59.59
2022-12-18T13:57:43.483Z,58.96
2022-12-18T14:00:26.089Z,59.63
2022-12-18T14:02:53.222Z,60.13
2022-12-18T14:05:34.464Z,60.59
2022-12-18T14:08:12.046Z,61.07
2022-12-18T14:10:49.937Z,61.02
2022-12-18T14:13:24.158Z,61.19
2022-12-18T14:15:51.443Z,60.89
2022-12-18T14:18:32.961Z,61.58
2022-12-18T14:21:02.616Z,61.86
2022-12-18T14:23:41.939Z,62.24
2022-12-18T14:26:28.938Z,62.21
2022-12-18T14:29:02.208Z,62.36
2022-12-18T14:31:31.414Z,62.58
2022-12-18T14:33:57.909Z,62.87
2022-12-18T14:36:26.993Z,62.55
2022-12-18T14:38:55.648Z,63.16
2022-12-18T14:41:23.035Z,63.46
2022-12-18T14:43:52.769Z,63.35
2022-12-18T14:46:43.325Z,64.05
2022-12-18T14:49:35.552Z,64.14
2022-12-18T14:52:06.383Z,63.99
2022-12-18T14:54:37.940Z,64.25
2022-12-18T14:57:35.258Z,64.17
2022-12-18T15:00:06.720Z,64.71
2022-12-18T15:02:36.876Z,64.79
2022-12-18T15:05:11.309Z,64.93
2022-12-18T15:07:44.421Z,65.10
2022-12-18T15:10:14.719Z,65.42
2022-12-18T15:13:06.999Z,66.02
2022-12-18T15:15:46.079Z,66.20
2022-12-18T15:18:19.152Z,66.29
2022-12-18T15:20:46.009Z,66.18
2022-12-18T15:23:23.665Z,66.48
2022-12-18T15:25:58.427Z,66.80
2022-12-18T15:28:36.232Z,66.66
2022-12-18T15:31:04.207Z,67.24
2022-12-18T15:33:33.750Z,67.38
2022-12-18T15:36:03.489Z,67.30
2022-12-18T15:38:30.496Z,67.32
2022-12-18T15:40:57.856Z,67.67
2022-12-18T15:43:34.625Z,68.19
2022-12-18T15:46:14.316Z,68.80
2022-12-18T15:48:49.142Z,68.70
2022-12-18T15:51:25.188Z,68.70
2022-12-18T15:53:55.469Z,68.52
2022-12-18T15:56:40.451Z,68.61
2022-12-18T15:59:25.109Z,69.12
2022-12-18T16:01:53.942Z,68.59
2022-12-18T16:04:22.411Z,68.67
2022-12-18T16:09:36.695Z,68.54
2022-12-18T16:12:03.279Z,68.49
2022-12-18T16:14:30.786Z,68.63
2022-12-18T16:16:59.770Z,68.41
2022-12-18T16:19:27.082Z,68.45
2022-12-18T16:21:56.092Z,68.36
2022-12-18T16:24:28.336Z,68.48
2022-12-18T16:26:56.518Z,68.28
2022-12-18T16:29:27.738Z,68.32
2022-12-18T16:31:59.436Z,68.60
2022-12-18T16:34:29.328Z,68.47
2022-12-18T16:37:06.190Z,68.60
2022-12-18T16:39:37.376Z,68.31
2022-12-18T16:42:07.250Z,68.53
2022-12-18T16:44:34.662Z,68.29
2022-12-18T16:47:03.332Z,67.87
2022-12-18T16:49:30.974Z,68.21
2022-12-18T16:51:58.036Z,68.27
2022-12-18T16:54:24.941Z,68.12
2022-12-18T16:56:52.129Z,68.31
2022-12-18T16:59:18.597Z,68.16
2022-12-18T17:01:45.209Z,68.56
2022-12-18T17:04:11.943Z,68.55
2022-12-18T17:06:44.797Z,68.83
2022-12-18T17:09:18.276Z,68.60
2022-12-18T17:11:44.719Z,68.63
2022-12-18T17:14:23.033Z,69.13
2022-12-18T17:17:07.249Z,68.64
2022-12-18T17:19:34.283Z,68.54
2022-12-18T17:22:00.780Z,68.58
2022-12-18T17:24:31.409Z,68.46
2022-12-18T17:27:00.835Z,68.77
2022-12-18T17:29:27.245Z,68.63
2022-12-18T17:31:53.695Z,68.81
2022-12-18T17:34:22.024Z,68.71
2022-12-18T17:36:48.571Z,68.56
2022-12-18T17:39:19.188Z,69.11
2022-12-18T17:41:46.106Z,68.81
2022-12-18T17:44:12.831Z,68.86
2022-12-18T17:46:39.438Z,68.70
2022-12-18T17:49:06.133Z,68.44
2022-12-18T17:51:32.580Z,68.52
2022-12-18T17:53:59.063Z,68.28
2022-12-18T17:56:26.159Z,68.20
2022-12-18T17:58:52.647Z,68.28
2022-12-18T18:01:23.257Z,68.58
2022-12-18T18:03:50.976Z,68.18
2022-12-18T18:06:20.360Z,67.91
2022-12-18T18:08:47.059Z,67.93
2022-12-18T18:11:35.685Z,68.17
2022-12-18T18:14:05.174Z,67.96
2022-12-18T18:16:35.187Z,68.08
2022-12-18T18:19:04.342Z,67.62
2022-12-18T18:21:32.082Z,67.70
2022-12-18T18:24:03.054Z,68.12
2022-12-18T18:26:31.180Z,68.12
2022-12-18T18:28:59.851Z,67.71
2022-12-18T18:31:29.988Z,67.84
2022-12-18T18:33:57.174Z,67.51
2022-12-18T18:36:24.309Z,67.59
2022-12-18T18:38:51.731Z,67.97
2022-12-18T18:41:19.035Z,67.97
2022-12-18T18:43:45.756Z,67.87
2022-12-18T18:46:15.761Z,68.07
2022-12-18T18:48:43.736Z,67.56
2022-12-18T18:51:15.601Z,67.92
2022-12-18T18:53:49.839Z,67.77
2022-12-18T18:56:45.612Z,67.71
2022-12-18T18:59:05.819Z,67.41
2022-12-18T19:01:32.930Z,67.59
2022-12-18T19:04:02.574Z,67.20
2022-12-18T19:06:29.840Z,67.17
2022-12-18T19:08:57.348Z,67.22
2022-12-18T19:11:44.293Z,67.26
2022-12-18T19:14:13.326Z,67.05
2022-12-18T19:16:40.218Z,67.05
2022-12-18T19:19:08.105Z,67.18
2022-12-18T19:21:35.584Z,66.62
2022-12-18T19:24:02.839Z,66.66
2022-12-18T19:26:30.375Z,66.42
2022-12-18T19:29:23.294Z,66.64
2022-12-18T19:31:49.733Z,66.23
2022-12-18T19:34:16.168Z,66.14
2022-12-18T19:36:42.622Z,66.50
2022-12-18T19:39:14.816Z,66.15
2022-12-18T19:41:42.358Z,65.74
2022-12-18T19:44:11.837Z,65.79
2022-12-18T19:46:41.627Z,65.71
2022-12-18T19:49:11.418Z,65.75
2022-12-18T19:51:42.954Z,65.84
2022-12-18T19:54:13.349Z,65.34
2022-12-18T19:56:43.405Z,65.55
2022-12-18T19:59:10.042Z,65.52
2022-12-18T20:01:36.568Z,65.83
2022-12-18T20:04:03.374Z,65.64
2022-12-18T20:06:36.172Z,65.96
2022-12-18T20:09:06.048Z,65.69
2022-12-18T20:11:36.388Z,65.76
2022-12-18T20:14:08.446Z,65.72
2022-12-18T20:16:35.320Z,65.23
2022-12-18T20:19:02.227Z,65.44
2022-12-18T20:21:31.854Z,65.42
2022-12-18T20:23:59.880Z,64.90
2022-12-18T20:26:26.844Z,65.23
2022-12-18T20:28:54.491Z,65.02
2022-12-18T20:31:21.011Z,64.75
2022-12-18T20:33:49.840Z,64.92
2022-12-18T20:36:21.359Z,64.69
2022-12-18T20:38:51.822Z,64.70
2022-12-18T20:41:22.590Z,64.69
2022-12-18T20:43:49.026Z,64.65
2022-12-18T20:46:18.800Z,65.04
2022-12-18T20:48:48.234Z,64.38
2022-12-18T20:51:17.101Z,64.28
2022-12-18T20:53:43.911Z,64.55
2022-12-18T20:56:21.616Z,64.95
2022-12-18T20:58:49.782Z,64.74
2022-12-18T21:01:19.137Z,64.17
2022-12-18T21:03:47.075Z,64.63
2022-12-18T21:06:15.530Z,63.96
2022-12-18T21:08:42.353Z,64.05
2022-12-18T21:11:46.944Z,64.10
2022-12-18T21:14:16.571Z,64.17
2022-12-18T21:16:44.083Z,64.28
2022-12-18T21:19:19.092Z,64.30
2022-12-18T21:21:47.241Z,64.11
2022-12-18T21:24:13.623Z,63.94
2022-12-18T21:26:45.483Z,63.78
2022-12-18T21:29:15.619Z,63.98
2022-12-18T21:31:42.792Z,63.77
2022-12-18T21:34:15.569Z,64.36
2022-12-18T21:36:42.091Z,63.96
2022-12-18T21:39:08.689Z,63.97
2022-12-18T21:41:53.770Z,63.85
2022-12-18T21:44:22.287Z,64.15
2022-12-18T21:46:55.179Z,64.14
2022-12-18T21:49:24.296Z,64.15
2022-12-18T21:51:53.694Z,64.40
2022-12-18T21:54:20.914Z,64.56
2022-12-18T21:56:58.436Z,64.41
2022-12-18T21:59:26.225Z,64.35
2022-12-18T22:01:54.842Z,64.32
2022-12-18T22:04:21.747Z,64.43
2022-12-18T22:06:48.703Z,64.21
2022-12-18T22:09:17.389Z,64.14
2022-12-18T22:11:44.513Z,64.66
2022-12-18T22:14:11.913Z,64.55
2022-12-18T22:16:38.370Z,64.29
2022-12-18T22:19:06.602Z,63.99
2022-12-18T22:21:35.520Z,64.30
2022-12-18T22:24:04.445Z,64.41
2022-12-18T22:26:39.305Z,64.38
2022-12-18T22:29:25.171Z,64.56
2022-12-18T22:31:52.463Z,64.39
2022-12-18T22:34:22.840Z,64.49
2022-12-18T22:36:49.852Z,64.40
2022-12-18T22:39:22.012Z,64.63
2022-12-18T22:41:49.034Z,63.95
2022-12-18T22:44:18.078Z,63.72
2022-12-18T22:46:49.325Z,64.12
2022-12-18T22:49:24.670Z,63.74
2022-12-18T22:51:52.440Z,63.78
2022-12-18T22:54:19.112Z,63.92
2022-12-18T22:56:49.092Z,64.54
2022-12-18T22:59:17.824Z,63.90
2022-12-18T23:01:48.045Z,63.82
2022-12-18T23:04:16.194Z,63.95
2022-12-18T23:06:43.412Z,64.20
2022-12-18T23:09:19.145Z,64.22
2022-12-18T23:11:46.690Z,64.01
2022-12-18T23:14:13.500Z,63.98
2022-12-18T23:16:40.053Z,64.06
2022-12-18T23:19:06.963Z,63.92
2022-12-18T23:21:33.390Z,63.89
2022-12-18T23:24:00.689Z,64.39
2022-12-18T23:26:27.489Z,63.80
2022-12-18T23:28:56.399Z,63.86
2022-12-18T23:31:29.192Z,63.69
2022-12-18T23:33:57.516Z,64.23
2022-12-18T23:36:24.419Z,64.19
2022-12-18T23:38:52.955Z,63.96
2022-12-18T23:41:21.362Z,63.80
2022-12-18T23:43:48.005Z,63.94
2022-12-18T23:46:25.273Z,64.77
2022-12-18T23:48:52.217Z,64.03
2022-12-18T23:51:23.344Z,63.64
2022-12-18T23:53:50.277Z,64.29
2022-12-18T23:56:16.727Z,64.13
2022-12-18T23:58:43.980Z,64.04
